sensor_id;sensor_type;location;lat;lon;timestamp;temperature;humidity
42755;DHT22;28407;51.830;5.684;2022-07-11T00:01:48;21.30;63.60
42755;DHT22;28407;51.830;5.684;2022-07-11T00:03:49;21.30;63.70
42755;DHT22;28407;51.830;5.684;2022-07-11T00:05:49;21.20;63.60
42755;DHT22;28407;51.830;5.684;2022-07-11T00:07:50;21.20;63.70
42755;DHT22;28407;51.830;5.684;2022-07-11T00:09:50;21.20;63.70
42755;DHT22;28407;51.830;5.684;2022-07-11T00:11:52;21.20;63.80
42755;DHT22;28407;51.830;5.684;2022-07-11T00:13:52;21.20;63.80
42755;DHT22;28407;51.830;5.684;2022-07-11T00:15:53;21.20;63.80
42755;DHT22;28407;51.830;5.684;2022-07-11T00:17:53;21.20;63.80
42755;DHT22;28407;51.830;5.684;2022-07-11T00:19:56;21.30;63.90
42755;DHT22;28407;51.830;5.684;2022-07-11T00:21:59;21.20;63.90
42755;DHT22;28407;51.830;5.684;2022-07-11T00:23:59;21.20;64.00
42755;DHT22;28407;51.830;5.684;2022-07-11T00:26:00;21.30;64.00
42755;DHT22;28407;51.830;5.684;2022-07-11T00:28:01;21.20;64.00
42755;DHT22;28407;51.830;5.684;2022-07-11T00:30:01;21.30;64.20
42755;DHT22;28407;51.830;5.684;2022-07-11T00:32:02;21.20;64.10
42755;DHT22;28407;51.830;5.684;2022-07-11T00:34:03;21.20;64.20
42755;DHT22;28407;51.830;5.684;2022-07-11T00:36:06;21.30;64.20
42755;DHT22;28407;51.830;5.684;2022-07-11T00:38:06;21.20;64.20
42755;DHT22;28407;51.830;5.684;2022-07-11T00:40:07;21.20;64.30
42755;DHT22;28407;51.830;5.684;2022-07-11T00:42:08;21.20;64.30
42755;DHT22;28407;51.830;5.684;2022-07-11T00:44:10;21.20;64.40
42755;DHT22;28407;51.830;5.684;2022-07-11T00:46:11;21.30;64.50
42755;DHT22;28407;51.830;5.684;2022-07-11T00:48:11;21.20;64.40
42755;DHT22;28407;51.830;5.684;2022-07-11T00:50:13;21.20;64.40
42755;DHT22;28407;51.830;5.684;2022-07-11T00:52:14;21.30;64.50
42755;DHT22;28407;51.830;5.684;2022-07-11T00:54:16;21.30;64.50
42755;DHT22;28407;51.830;5.684;2022-07-11T00:56:21;21.30;64.50
42755;DHT22;28407;51.830;5.684;2022-07-11T00:58:23;21.30;64.50
42755;DHT22;28407;51.830;5.684;2022-07-11T01:00:23;21.20;64.40
42755;DHT22;28407;51.830;5.684;2022-07-11T01:02:24;21.20;64.50
42755;DHT22;28407;51.830;5.684;2022-07-11T01:04:25;21.30;64.60
42755;DHT22;28407;51.830;5.684;2022-07-11T01:06:26;21.20;64.60
42755;DHT22;28407;51.830;5.684;2022-07-11T01:08:27;21.20;64.60
42755;DHT22;28407;51.830;5.684;2022-07-11T01:10:32;21.20;64.70
42755;DHT22;28407;51.830;5.684;2022-07-11T01:12:33;21.20;64.60
42755;DHT22;28407;51.830;5.684;2022-07-11T01:14:33;21.20;64.70
42755;DHT22;28407;51.830;5.684;2022-07-11T01:16:34;21.30;64.70
42755;DHT22;28407;51.830;5.684;2022-07-11T01:18:37;21.20;64.70
42755;DHT22;28407;51.830;5.684;2022-07-11T01:20:38;21.30;64.80
42755;DHT22;28407;51.830;5.684;2022-07-11T01:22:47;21.30;64.80
42755;DHT22;28407;51.830;5.684;2022-07-11T01:24:51;21.30;64.90
42755;DHT22;28407;51.830;5.684;2022-07-11T01:26:52;21.30;64.80
42755;DHT22;28407;51.830;5.684;2022-07-11T01:28:55;21.30;64.80
42755;DHT22;28407;51.830;5.684;2022-07-11T01:30:57;21.30;64.90
42755;DHT22;28407;51.830;5.684;2022-07-11T01:32:58;21.30;64.90
42755;DHT22;28407;51.830;5.684;2022-07-11T01:34:59;21.30;64.90
42755;DHT22;28407;51.830;5.684;2022-07-11T01:37:00;21.20;64.90
42755;DHT22;28407;51.830;5.684;2022-07-11T01:39:01;21.30;65.00
42755;DHT22;28407;51.830;5.684;2022-07-11T01:41:02;21.30;65.00
42755;DHT22;28407;51.830;5.684;2022-07-11T01:43:03;21.20;65.00
42755;DHT22;28407;51.830;5.684;2022-07-11T01:45:04;21.20;65.10
42755;DHT22;28407;51.830;5.684;2022-07-11T01:47:05;21.30;65.10
42755;DHT22;28407;51.830;5.684;2022-07-11T01:49:05;21.20;65.10
42755;DHT22;28407;51.830;5.684;2022-07-11T01:51:06;21.20;65.10
42755;DHT22;28407;51.830;5.684;2022-07-11T01:53:07;21.30;65.10
42755;DHT22;28407;51.830;5.684;2022-07-11T01:55:08;21.30;65.20
42755;DHT22;28407;51.830;5.684;2022-07-11T01:57:11;21.20;65.10
42755;DHT22;28407;51.830;5.684;2022-07-11T01:59:12;21.20;65.20
42755;DHT22;28407;51.830;5.684;2022-07-11T02:01:12;21.20;65.20
42755;DHT22;28407;51.830;5.684;2022-07-11T02:03:13;21.20;65.20
42755;DHT22;28407;51.830;5.684;2022-07-11T02:05:14;21.30;65.30
42755;DHT22;28407;51.830;5.684;2022-07-11T02:07:14;21.20;65.30
42755;DHT22;28407;51.830;5.684;2022-07-11T02:09:35;21.20;65.30
42755;DHT22;28407;51.830;5.684;2022-07-11T02:11:36;21.20;65.30
42755;DHT22;28407;51.830;5.684;2022-07-11T02:13:36;21.30;65.40
42755;DHT22;28407;51.830;5.684;2022-07-11T02:15:38;21.20;65.40
42755;DHT22;28407;51.830;5.684;2022-07-11T02:17:38;21.20;65.30
42755;DHT22;28407;51.830;5.684;2022-07-11T02:19:39;21.20;65.40
42755;DHT22;28407;51.830;5.684;2022-07-11T02:21:40;21.20;65.40
42755;DHT22;28407;51.830;5.684;2022-07-11T02:23:40;21.20;65.40
42755;DHT22;28407;51.830;5.684;2022-07-11T02:25:42;21.20;65.50
42755;DHT22;28407;51.830;5.684;2022-07-11T02:27:43;21.20;65.50
42755;DHT22;28407;51.830;5.684;2022-07-11T02:29:46;21.20;66.20
42755;DHT22;28407;51.830;5.684;2022-07-11T02:31:46;21.20;65.50
42755;DHT22;28407;51.830;5.684;2022-07-11T02:33:47;21.20;65.50
42755;DHT22;28407;51.830;5.684;2022-07-11T02:35:48;21.20;65.60
42755;DHT22;28407;51.830;5.684;2022-07-11T02:37:48;21.20;65.60
42755;DHT22;28407;51.830;5.684;2022-07-11T02:39:49;21.20;65.70
42755;DHT22;28407;51.830;5.684;2022-07-11T02:41:50;21.20;65.70
42755;DHT22;28407;51.830;5.684;2022-07-11T02:43:50;21.20;65.70
42755;DHT22;28407;51.830;5.684;2022-07-11T02:45:51;21.20;65.70
42755;DHT22;28407;51.830;5.684;2022-07-11T02:47:52;21.20;65.80
42755;DHT22;28407;51.830;5.684;2022-07-11T02:49:52;21.20;65.90
42755;DHT22;28407;51.830;5.684;2022-07-11T02:51:53;21.20;66.00
42755;DHT22;28407;51.830;5.684;2022-07-11T02:53:53;21.10;66.00
42755;DHT22;28407;51.830;5.684;2022-07-11T02:55:54;21.10;66.10
42755;DHT22;28407;51.830;5.684;2022-07-11T02:57:55;21.10;66.20
42755;DHT22;28407;51.830;5.684;2022-07-11T02:59:55;21.10;66.30
42755;DHT22;28407;51.830;5.684;2022-07-11T03:01:56;21.10;66.40
42755;DHT22;28407;51.830;5.684;2022-07-11T03:03:57;21.00;66.50
42755;DHT22;28407;51.830;5.684;2022-07-11T03:05:57;21.00;66.50
42755;DHT22;28407;51.830;5.684;2022-07-11T03:07:58;21.00;66.70
42755;DHT22;28407;51.830;5.684;2022-07-11T03:09:59;21.00;66.70
42755;DHT22;28407;51.830;5.684;2022-07-11T03:11:59;21.00;66.80
42755;DHT22;28407;51.830;5.684;2022-07-11T03:14:00;21.00;66.90
42755;DHT22;28407;51.830;5.684;2022-07-11T03:16:04;21.00;67.00
42755;DHT22;28407;51.830;5.684;2022-07-11T03:18:05;21.00;67.10
42755;DHT22;28407;51.830;5.684;2022-07-11T03:20:08;21.00;67.10
42755;DHT22;28407;51.830;5.684;2022-07-11T03:22:09;20.90;67.10
42755;DHT22;28407;51.830;5.684;2022-07-11T03:24:10;21.00;67.20
42755;DHT22;28407;51.830;5.684;2022-07-11T03:26:11;20.90;67.20
42755;DHT22;28407;51.830;5.684;2022-07-11T03:28:12;20.90;67.30
42755;DHT22;28407;51.830;5.684;2022-07-11T03:30:13;21.00;67.30
42755;DHT22;28407;51.830;5.684;2022-07-11T03:32:15;20.90;67.30
42755;DHT22;28407;51.830;5.684;2022-07-11T03:34:15;21.00;67.30
42755;DHT22;28407;51.830;5.684;2022-07-11T03:36:16;20.90;67.30
42755;DHT22;28407;51.830;5.684;2022-07-11T03:38:20;21.00;67.30
42755;DHT22;28407;51.830;5.684;2022-07-11T03:40:21;21.00;67.30
42755;DHT22;28407;51.830;5.684;2022-07-11T03:42:21;21.00;67.30
42755;DHT22;28407;51.830;5.684;2022-07-11T03:44:22;21.00;67.30
42755;DHT22;28407;51.830;5.684;2022-07-11T03:46:23;21.00;67.30
42755;DHT22;28407;51.830;5.684;2022-07-11T03:48:24;21.00;67.30
42755;DHT22;28407;51.830;5.684;2022-07-11T03:50:24;20.90;67.20
42755;DHT22;28407;51.830;5.684;2022-07-11T03:52:25;21.00;67.30
42755;DHT22;28407;51.830;5.684;2022-07-11T03:54:26;21.00;67.30
42755;DHT22;28407;51.830;5.684;2022-07-11T03:56:27;21.00;67.30
42755;DHT22;28407;51.830;5.684;2022-07-11T03:58:27;21.00;67.30
42755;DHT22;28407;51.830;5.684;2022-07-11T04:00:28;21.00;67.30
42755;DHT22;28407;51.830;5.684;2022-07-11T04:02:29;21.00;67.20
42755;DHT22;28407;51.830;5.684;2022-07-11T04:04:29;21.00;67.20
42755;DHT22;28407;51.830;5.684;2022-07-11T04:06:30;21.00;67.30
42755;DHT22;28407;51.830;5.684;2022-07-11T04:08:30;20.90;67.30
42755;DHT22;28407;51.830;5.684;2022-07-11T04:10:31;20.90;67.30
42755;DHT22;28407;51.830;5.684;2022-07-11T04:12:32;20.90;67.30
42755;DHT22;28407;51.830;5.684;2022-07-11T04:14:33;20.90;67.30
42755;DHT22;28407;51.830;5.684;2022-07-11T04:16:33;20.90;67.40
42755;DHT22;28407;51.830;5.684;2022-07-11T04:18:34;20.90;67.50
42755;DHT22;28407;51.830;5.684;2022-07-11T04:20:35;20.90;67.60
42755;DHT22;28407;51.830;5.684;2022-07-11T04:22:35;20.90;67.60
42755;DHT22;28407;51.830;5.684;2022-07-11T04:24:36;20.90;67.80
42755;DHT22;28407;51.830;5.684;2022-07-11T04:26:37;20.90;67.90
42755;DHT22;28407;51.830;5.684;2022-07-11T04:28:37;20.90;68.00
42755;DHT22;28407;51.830;5.684;2022-07-11T04:30:38;20.90;68.00
42755;DHT22;28407;51.830;5.684;2022-07-11T04:32:41;20.90;68.10
42755;DHT22;28407;51.830;5.684;2022-07-11T04:34:41;20.90;68.20
42755;DHT22;28407;51.830;5.684;2022-07-11T04:36:45;20.90;68.20
42755;DHT22;28407;51.830;5.684;2022-07-11T04:38:46;20.80;68.20
42755;DHT22;28407;51.830;5.684;2022-07-11T04:40:47;20.90;68.30
42755;DHT22;28407;51.830;5.684;2022-07-11T04:42:48;20.80;68.30
42755;DHT22;28407;51.830;5.684;2022-07-11T04:44:48;20.80;68.40
42755;DHT22;28407;51.830;5.684;2022-07-11T04:46:49;20.90;68.40
42755;DHT22;28407;51.830;5.684;2022-07-11T04:48:49;20.80;68.40
42755;DHT22;28407;51.830;5.684;2022-07-11T04:50:50;20.90;68.50
42755;DHT22;28407;51.830;5.684;2022-07-11T04:52:51;20.80;68.50
42755;DHT22;28407;51.830;5.684;2022-07-11T04:54:52;20.80;68.60
42755;DHT22;28407;51.830;5.684;2022-07-11T04:56:53;20.80;68.70
42755;DHT22;28407;51.830;5.684;2022-07-11T04:58:54;20.80;68.70
42755;DHT22;28407;51.830;5.684;2022-07-11T05:00:54;20.80;68.80
42755;DHT22;28407;51.830;5.684;2022-07-11T05:02:55;20.80;68.80
42755;DHT22;28407;51.830;5.684;2022-07-11T05:04:56;20.80;68.90
42755;DHT22;28407;51.830;5.684;2022-07-11T05:06:56;20.80;68.90
42755;DHT22;28407;51.830;5.684;2022-07-11T05:08:57;20.80;69.00
42755;DHT22;28407;51.830;5.684;2022-07-11T05:10:58;20.80;69.00
42755;DHT22;28407;51.830;5.684;2022-07-11T05:12:58;20.80;69.10
42755;DHT22;28407;51.830;5.684;2022-07-11T05:14:59;20.80;69.00
42755;DHT22;28407;51.830;5.684;2022-07-11T05:17:00;20.80;69.10
42755;DHT22;28407;51.830;5.684;2022-07-11T05:19:00;20.80;69.10
42755;DHT22;28407;51.830;5.684;2022-07-11T05:21:01;20.80;69.20
42755;DHT22;28407;51.830;5.684;2022-07-11T05:23:02;20.80;69.30
42755;DHT22;28407;51.830;5.684;2022-07-11T05:25:03;20.80;69.40
42755;DHT22;28407;51.830;5.684;2022-07-11T05:27:03;20.80;69.40
42755;DHT22;28407;51.830;5.684;2022-07-11T05:29:04;20.80;69.60
42755;DHT22;28407;51.830;5.684;2022-07-11T05:31:05;20.80;69.60
42755;DHT22;28407;51.830;5.684;2022-07-11T05:33:05;20.80;69.70
42755;DHT22;28407;51.830;5.684;2022-07-11T05:35:06;20.80;69.70
42755;DHT22;28407;51.830;5.684;2022-07-11T05:37:07;20.80;69.80
42755;DHT22;28407;51.830;5.684;2022-07-11T05:39:08;20.80;69.90
42755;DHT22;28407;51.830;5.684;2022-07-11T05:41:08;20.80;69.90
42755;DHT22;28407;51.830;5.684;2022-07-11T05:43:09;20.80;69.90
42755;DHT22;28407;51.830;5.684;2022-07-11T05:45:10;20.80;70.00
42755;DHT22;28407;51.830;5.684;2022-07-11T05:47:10;20.80;70.00
42755;DHT22;28407;51.830;5.684;2022-07-11T05:49:11;20.80;70.10
42755;DHT22;28407;51.830;5.684;2022-07-11T05:51:13;20.80;70.10
42755;DHT22;28407;51.830;5.684;2022-07-11T05:53:14;20.80;70.20
42755;DHT22;28407;51.830;5.684;2022-07-11T05:55:15;20.80;70.20
42755;DHT22;28407;51.830;5.684;2022-07-11T05:57:16;20.80;70.20
42755;DHT22;28407;51.830;5.684;2022-07-11T05:59:16;20.80;70.30
42755;DHT22;28407;51.830;5.684;2022-07-11T06:01:17;20.80;70.30
42755;DHT22;28407;51.830;5.684;2022-07-11T06:03:18;20.80;70.40
42755;DHT22;28407;51.830;5.684;2022-07-11T06:05:19;20.80;70.40
42755;DHT22;28407;51.830;5.684;2022-07-11T06:07:20;20.80;70.40
42755;DHT22;28407;51.830;5.684;2022-07-11T06:09:39;20.80;70.50
42755;DHT22;28407;51.830;5.684;2022-07-11T06:11:40;20.80;70.50
42755;DHT22;28407;51.830;5.684;2022-07-11T06:13:43;20.80;70.50
42755;DHT22;28407;51.830;5.684;2022-07-11T06:15:45;20.80;70.60
42755;DHT22;28407;51.830;5.684;2022-07-11T06:17:45;20.80;70.60
42755;DHT22;28407;51.830;5.684;2022-07-11T06:19:46;20.80;70.60
42755;DHT22;28407;51.830;5.684;2022-07-11T06:21:47;20.80;70.60
42755;DHT22;28407;51.830;5.684;2022-07-11T06:23:47;20.80;70.60
42755;DHT22;28407;51.830;5.684;2022-07-11T06:25:48;20.90;70.70
42755;DHT22;28407;51.830;5.684;2022-07-11T06:27:48;20.80;70.60
42755;DHT22;28407;51.830;5.684;2022-07-11T06:29:49;20.90;70.70
42755;DHT22;28407;51.830;5.684;2022-07-11T06:31:50;20.90;70.70
42755;DHT22;28407;51.830;5.684;2022-07-11T06:33:50;20.90;70.70
42755;DHT22;28407;51.830;5.684;2022-07-11T06:35:54;20.90;70.80
42755;DHT22;28407;51.830;5.684;2022-07-11T06:37:55;20.90;70.80
42755;DHT22;28407;51.830;5.684;2022-07-11T06:39:56;20.90;70.80
42755;DHT22;28407;51.830;5.684;2022-07-11T06:41:57;20.90;70.80
42755;DHT22;28407;51.830;5.684;2022-07-11T06:43:57;20.90;70.70
42755;DHT22;28407;51.830;5.684;2022-07-11T06:45:58;20.90;70.70
42755;DHT22;28407;51.830;5.684;2022-07-11T06:48:00;21.00;70.80
42755;DHT22;28407;51.830;5.684;2022-07-11T06:50:01;21.00;71.40
42755;DHT22;28407;51.830;5.684;2022-07-11T06:52:01;21.00;70.70
42755;DHT22;28407;51.830;5.684;2022-07-11T06:54:02;21.00;70.70
42755;DHT22;28407;51.830;5.684;2022-07-11T06:56:03;21.00;70.70
42755;DHT22;28407;51.830;5.684;2022-07-11T06:58:03;21.10;70.70
42755;DHT22;28407;51.830;5.684;2022-07-11T07:00:06;21.10;70.70
42755;DHT22;28407;51.830;5.684;2022-07-11T07:02:08;21.10;70.70
42755;DHT22;28407;51.830;5.684;2022-07-11T07:04:08;21.10;70.70
42755;DHT22;28407;51.830;5.684;2022-07-11T07:06:09;21.10;70.60
42755;DHT22;28407;51.830;5.684;2022-07-11T07:08:10;21.10;70.50
42755;DHT22;28407;51.830;5.684;2022-07-11T07:10:10;21.20;70.50
42755;DHT22;28407;51.830;5.684;2022-07-11T07:12:11;21.20;70.40
42755;DHT22;28407;51.830;5.684;2022-07-11T07:14:13;21.20;70.40
42755;DHT22;28407;51.830;5.684;2022-07-11T07:16:14;21.30;70.30
42755;DHT22;28407;51.830;5.684;2022-07-11T07:18:14;21.20;70.20
42755;DHT22;28407;51.830;5.684;2022-07-11T07:20:15;21.20;70.20
42755;DHT22;28407;51.830;5.684;2022-07-11T07:22:16;21.30;70.20
42755;DHT22;28407;51.830;5.684;2022-07-11T07:24:17;21.30;70.10
42755;DHT22;28407;51.830;5.684;2022-07-11T07:26:17;21.40;70.10
42755;DHT22;28407;51.830;5.684;2022-07-11T07:28:18;21.40;70.00
42755;DHT22;28407;51.830;5.684;2022-07-11T07:30:19;21.40;69.90
42755;DHT22;28407;51.830;5.684;2022-07-11T07:32:20;21.40;69.80
42755;DHT22;28407;51.830;5.684;2022-07-11T07:34:21;21.50;69.70
42755;DHT22;28407;51.830;5.684;2022-07-11T07:36:21;21.50;69.60
42755;DHT22;28407;51.830;5.684;2022-07-11T07:38:23;21.60;69.50
42755;DHT22;28407;51.830;5.684;2022-07-11T07:40:23;21.60;69.40
42755;DHT22;28407;51.830;5.684;2022-07-11T07:42:24;21.60;69.20
42755;DHT22;28407;51.830;5.684;2022-07-11T07:44:25;21.60;69.20
42755;DHT22;28407;51.830;5.684;2022-07-11T07:46:25;21.60;69.10
42755;DHT22;28407;51.830;5.684;2022-07-11T07:48:26;21.60;69.10
42755;DHT22;28407;51.830;5.684;2022-07-11T07:50:27;21.60;68.90
42755;DHT22;28407;51.830;5.684;2022-07-11T07:52:28;21.60;68.90
42755;DHT22;28407;51.830;5.684;2022-07-11T07:54:28;21.60;68.80
42755;DHT22;28407;51.830;5.684;2022-07-11T07:56:29;21.70;68.80
42755;DHT22;28407;51.830;5.684;2022-07-11T07:58:30;21.70;68.70
42755;DHT22;28407;51.830;5.684;2022-07-11T08:00:30;21.70;68.60
42755;DHT22;28407;51.830;5.684;2022-07-11T08:02:50;21.80;68.60
42755;DHT22;28407;51.830;5.684;2022-07-11T08:04:51;21.80;68.40
42755;DHT22;28407;51.830;5.684;2022-07-11T08:06:51;21.80;68.40
42755;DHT22;28407;51.830;5.684;2022-07-11T08:08:52;21.80;68.20
42755;DHT22;28407;51.830;5.684;2022-07-11T08:10:53;21.90;68.10
42755;DHT22;28407;51.830;5.684;2022-07-11T08:12:53;21.90;68.00
42755;DHT22;28407;51.830;5.684;2022-07-11T08:14:54;22.00;68.00
42755;DHT22;28407;51.830;5.684;2022-07-11T08:16:54;22.00;67.90
42755;DHT22;28407;51.830;5.684;2022-07-11T08:18:56;22.00;67.70
42755;DHT22;28407;51.830;5.684;2022-07-11T08:20:56;22.10;67.60
42755;DHT22;28407;51.830;5.684;2022-07-11T08:23:01;22.10;67.50
42755;DHT22;28407;51.830;5.684;2022-07-11T08:25:02;22.20;67.40
42755;DHT22;28407;51.830;5.684;2022-07-11T08:27:03;22.20;67.30
42755;DHT22;28407;51.830;5.684;2022-07-11T08:29:04;22.10;67.20
42755;DHT22;28407;51.830;5.684;2022-07-11T08:31:05;22.20;67.20
42755;DHT22;28407;51.830;5.684;2022-07-11T08:33:05;22.20;67.10
42755;DHT22;28407;51.830;5.684;2022-07-11T08:35:07;22.20;67.10
42755;DHT22;28407;51.830;5.684;2022-07-11T08:37:08;22.20;67.00
42755;DHT22;28407;51.830;5.684;2022-07-11T08:39:08;22.20;67.00
42755;DHT22;28407;51.830;5.684;2022-07-11T08:41:10;22.20;66.80
42755;DHT22;28407;51.830;5.684;2022-07-11T08:43:15;22.20;66.80
42755;DHT22;28407;51.830;5.684;2022-07-11T08:45:17;22.20;66.60
42755;DHT22;28407;51.830;5.684;2022-07-11T08:47:18;22.20;66.60
42755;DHT22;28407;51.830;5.684;2022-07-11T08:49:19;22.20;66.50
42755;DHT22;28407;51.830;5.684;2022-07-11T08:51:21;22.20;66.50
42755;DHT22;28407;51.830;5.684;2022-07-11T08:53:23;22.20;66.50
42755;DHT22;28407;51.830;5.684;2022-07-11T08:55:24;22.20;66.50
42755;DHT22;28407;51.830;5.684;2022-07-11T08:57:26;22.30;66.50
42755;DHT22;28407;51.830;5.684;2022-07-11T08:59:27;22.30;66.40
42755;DHT22;28407;51.830;5.684;2022-07-11T09:01:35;22.30;66.30
42755;DHT22;28407;51.830;5.684;2022-07-11T09:03:45;22.30;66.20
42755;DHT22;28407;51.830;5.684;2022-07-11T09:05:47;22.30;66.10
42755;DHT22;28407;51.830;5.684;2022-07-11T09:07:49;22.30;66.00
42755;DHT22;28407;51.830;5.684;2022-07-11T09:09:49;22.40;66.00
42755;DHT22;28407;51.830;5.684;2022-07-11T09:11:51;22.40;65.90
42755;DHT22;28407;51.830;5.684;2022-07-11T09:13:52;22.40;65.80
42755;DHT22;28407;51.830;5.684;2022-07-11T09:16:00;22.40;65.80
42755;DHT22;28407;51.830;5.684;2022-07-11T09:18:02;22.40;65.70
42755;DHT22;28407;51.830;5.684;2022-07-11T09:20:03;22.40;65.60
42755;DHT22;28407;51.830;5.684;2022-07-11T09:22:09;22.40;65.50
42755;DHT22;28407;51.830;5.684;2022-07-11T09:24:28;22.40;65.50
42755;DHT22;28407;51.830;5.684;2022-07-11T09:26:54;22.40;65.50
42755;DHT22;28407;51.830;5.684;2022-07-11T09:29:02;22.40;65.40
42755;DHT22;28407;51.830;5.684;2022-07-11T09:31:15;22.50;65.40
42755;DHT22;28407;51.830;5.684;2022-07-11T09:33:17;22.50;65.40
42755;DHT22;28407;51.830;5.684;2022-07-11T09:35:18;22.50;65.40
42755;DHT22;28407;51.830;5.684;2022-07-11T09:37:19;22.50;65.40
42755;DHT22;28407;51.830;5.684;2022-07-11T09:39:27;22.50;65.40
42755;DHT22;28407;51.830;5.684;2022-07-11T09:41:34;22.60;65.40
42755;DHT22;28407;51.830;5.684;2022-07-11T09:43:35;22.60;65.30
42755;DHT22;28407;51.830;5.684;2022-07-11T09:45:36;22.50;65.30
42755;DHT22;28407;51.830;5.684;2022-07-11T09:47:47;22.60;65.30
42755;DHT22;28407;51.830;5.684;2022-07-11T09:49:49;22.60;65.20
42755;DHT22;28407;51.830;5.684;2022-07-11T09:51:49;22.60;65.10
42755;DHT22;28407;51.830;5.684;2022-07-11T09:53:57;22.70;65.00
42755;DHT22;28407;51.830;5.684;2022-07-11T09:55:58;22.70;65.00
42755;DHT22;28407;51.830;5.684;2022-07-11T09:57:58;22.70;64.90
42755;DHT22;28407;51.830;5.684;2022-07-11T10:00:00;22.70;64.90
42755;DHT22;28407;51.830;5.684;2022-07-11T10:02:05;22.70;65.00
42755;DHT22;28407;51.830;5.684;2022-07-11T10:04:08;22.70;65.00
42755;DHT22;28407;51.830;5.684;2022-07-11T10:06:10;22.70;65.00
42755;DHT22;28407;51.830;5.684;2022-07-11T10:08:11;22.80;65.00
42755;DHT22;28407;51.830;5.684;2022-07-11T10:10:12;22.70;65.00
42755;DHT22;28407;51.830;5.684;2022-07-11T10:12:13;22.80;64.90
42755;DHT22;28407;51.830;5.684;2022-07-11T10:14:14;22.80;64.90
42755;DHT22;28407;51.830;5.684;2022-07-11T10:16:40;22.80;64.80
42755;DHT22;28407;51.830;5.684;2022-07-11T10:18:49;22.80;64.70
42755;DHT22;28407;51.830;5.684;2022-07-11T10:21:01;22.80;64.70
42755;DHT22;28407;51.830;5.684;2022-07-11T10:28:22;22.90;64.30
42755;DHT22;28407;51.830;5.684;2022-07-11T10:30:46;22.90;64.20
42755;DHT22;28407;51.830;5.684;2022-07-11T10:33:01;22.90;64.20
42755;DHT22;28407;51.830;5.684;2022-07-11T10:35:09;22.80;64.20
42755;DHT22;28407;51.830;5.684;2022-07-11T10:37:10;22.80;64.20
42755;DHT22;28407;51.830;5.684;2022-07-11T10:41:21;22.80;64.20
42755;DHT22;28407;51.830;5.684;2022-07-11T10:45:23;22.80;64.30
42755;DHT22;28407;51.830;5.684;2022-07-11T10:47:43;22.90;64.30
42755;DHT22;28407;51.830;5.684;2022-07-11T10:49:48;22.90;64.30
42755;DHT22;28407;51.830;5.684;2022-07-11T10:52:06;22.90;64.30
42755;DHT22;28407;51.830;5.684;2022-07-11T10:59:17;23.00;64.10
42755;DHT22;28407;51.830;5.684;2022-07-11T11:01:17;23.00;64.10
42755;DHT22;28407;51.830;5.684;2022-07-11T11:03:18;23.00;64.10
42755;DHT22;28407;51.830;5.684;2022-07-11T11:05:48;23.00;64.20
42755;DHT22;28407;51.830;5.684;2022-07-11T11:07:49;23.00;64.10
42755;DHT22;28407;51.830;5.684;2022-07-11T11:09:51;23.00;64.00
42755;DHT22;28407;51.830;5.684;2022-07-11T11:11:52;23.00;64.00
42755;DHT22;28407;51.830;5.684;2022-07-11T11:14:17;23.00;63.90
42755;DHT22;28407;51.830;5.684;2022-07-11T11:16:20;23.00;63.80
42755;DHT22;28407;51.830;5.684;2022-07-11T11:20:32;23.00;63.70
42755;DHT22;28407;51.830;5.684;2022-07-11T11:22:32;23.10;63.60
42755;DHT22;28407;51.830;5.684;2022-07-11T11:24:34;23.20;63.50
42755;DHT22;28407;51.830;5.684;2022-07-11T11:26:51;23.20;63.30
42755;DHT22;28407;51.830;5.684;2022-07-11T11:28:57;23.30;63.30
42755;DHT22;28407;51.830;5.684;2022-07-11T11:31:02;23.30;63.20
42755;DHT22;28407;51.830;5.684;2022-07-11T11:33:14;23.30;63.10
42755;DHT22;28407;51.830;5.684;2022-07-11T11:35:17;23.30;63.10
42755;DHT22;28407;51.830;5.684;2022-07-11T11:37:17;23.30;63.10
42755;DHT22;28407;51.830;5.684;2022-07-11T11:39:23;23.30;63.00
42755;DHT22;28407;51.830;5.684;2022-07-11T11:41:29;23.40;63.00
42755;DHT22;28407;51.830;5.684;2022-07-11T11:43:30;23.40;62.90
42755;DHT22;28407;51.830;5.684;2022-07-11T11:45:30;23.40;62.80
42755;DHT22;28407;51.830;5.684;2022-07-11T11:47:31;23.40;62.70
42755;DHT22;28407;51.830;5.684;2022-07-11T11:49:45;23.50;62.60
42755;DHT22;28407;51.830;5.684;2022-07-11T11:51:46;23.60;62.50
42755;DHT22;28407;51.830;5.684;2022-07-11T11:53:49;23.60;62.40
42755;DHT22;28407;51.830;5.684;2022-07-11T11:55:50;23.60;62.30
42755;DHT22;28407;51.830;5.684;2022-07-11T11:57:50;23.70;62.30
42755;DHT22;28407;51.830;5.684;2022-07-11T11:59:51;23.70;62.20
42755;DHT22;28407;51.830;5.684;2022-07-11T12:01:52;23.70;62.10
42755;DHT22;28407;51.830;5.684;2022-07-11T12:03:57;23.80;62.10
42755;DHT22;28407;51.830;5.684;2022-07-11T12:05:58;23.90;62.10
42755;DHT22;28407;51.830;5.684;2022-07-11T12:07:58;23.90;62.00
42755;DHT22;28407;51.830;5.684;2022-07-11T12:09:59;23.90;61.90
42755;DHT22;28407;51.830;5.684;2022-07-11T12:12:02;24.00;61.90
42755;DHT22;28407;51.830;5.684;2022-07-11T12:14:21;24.00;61.90
42755;DHT22;28407;51.830;5.684;2022-07-11T12:16:23;24.00;61.80
42755;DHT22;28407;51.830;5.684;2022-07-11T12:18:42;24.10;61.70
42755;DHT22;28407;51.830;5.684;2022-07-11T12:20:43;24.10;61.70
42755;DHT22;28407;51.830;5.684;2022-07-11T12:22:48;24.10;61.70
42755;DHT22;28407;51.830;5.684;2022-07-11T12:24:50;24.10;61.60
42755;DHT22;28407;51.830;5.684;2022-07-11T12:26:51;24.10;61.50
42755;DHT22;28407;51.830;5.684;2022-07-11T12:29:05;24.10;61.50
42755;DHT22;28407;51.830;5.684;2022-07-11T12:31:07;24.10;61.50
42755;DHT22;28407;51.830;5.684;2022-07-11T12:33:13;24.10;61.40
42755;DHT22;28407;51.830;5.684;2022-07-11T12:35:14;24.20;61.50
42755;DHT22;28407;51.830;5.684;2022-07-11T12:37:17;24.20;61.40
42755;DHT22;28407;51.830;5.684;2022-07-11T12:39:25;24.20;61.20
42755;DHT22;28407;51.830;5.684;2022-07-11T12:41:29;24.30;61.20
42755;DHT22;28407;51.830;5.684;2022-07-11T12:43:50;24.40;61.10
42755;DHT22;28407;51.830;5.684;2022-07-11T12:46:10;24.40;61.00
42755;DHT22;28407;51.830;5.684;2022-07-11T12:48:11;24.50;60.90
42755;DHT22;28407;51.830;5.684;2022-07-11T12:50:16;24.50;60.70
42755;DHT22;28407;51.830;5.684;2022-07-11T12:52:18;24.50;60.70
42755;DHT22;28407;51.830;5.684;2022-07-11T12:54:18;24.50;60.60
42755;DHT22;28407;51.830;5.684;2022-07-11T12:56:22;24.50;60.60
42755;DHT22;28407;51.830;5.684;2022-07-11T12:58:23;24.50;60.60
42755;DHT22;28407;51.830;5.684;2022-07-11T13:00:25;24.50;60.60
42755;DHT22;28407;51.830;5.684;2022-07-11T13:02:26;24.50;60.60
42755;DHT22;28407;51.830;5.684;2022-07-11T13:06:42;24.60;60.50
42755;DHT22;28407;51.830;5.684;2022-07-11T13:09:01;24.70;60.40
42755;DHT22;28407;51.830;5.684;2022-07-11T13:11:01;24.70;60.40
42755;DHT22;28407;51.830;5.684;2022-07-11T13:13:04;24.80;60.40